createdAt,value
2024-04-19T00:04:17.047Z,8.08
2024-04-19T00:10:37.080Z,8.04
2024-04-19T00:16:59.077Z,8.11
2024-04-19T00:23:19.088Z,8.09
2024-04-19T00:29:41.041Z,7.99
2024-04-19T00:36:01.079Z,7.94
2024-04-19T00:42:23.082Z,7.87
2024-04-19T00:48:43.087Z,7.92
2024-04-19T00:55:05.038Z,7.93
2024-04-19T01:01:25.153Z,7.94
2024-04-19T01:07:47.046Z,7.98
2024-04-19T01:14:07.055Z,7.99
2024-04-19T01:20:29.041Z,7.95
2024-04-19T01:26:48.886Z,7.95
2024-04-19T01:33:10.910Z,7.87
2024-04-19T01:39:30.901Z,7.9
2024-04-19T01:45:52.870Z,7.76
2024-04-19T01:52:12.888Z,7.83
2024-04-19T01:58:34.810Z,7.77
2024-04-19T02:04:54.828Z,7.83
2024-04-19T02:11:16.953Z,7.83
2024-04-19T02:17:37.011Z,7.7
2024-04-19T02:23:58.866Z,7.93
2024-04-19T02:30:19.018Z,7.96
2024-04-19T02:36:40.852Z,8.01
2024-04-19T02:43:00.881Z,7.79
2024-04-19T02:49:22.851Z,7.51
2024-04-19T02:55:42.869Z,7.08
2024-04-19T03:02:04.848Z,6.77
2024-04-19T03:26:46.739Z,6.49
2024-04-19T03:33:05.852Z,6.43
2024-04-19T03:39:27.870Z,6.44
2024-04-19T03:45:47.897Z,6.4
2024-04-19T03:52:09.919Z,6.43
2024-04-19T03:58:29.852Z,6.39
2024-04-19T04:04:51.872Z,6.39
2024-04-19T04:11:11.908Z,6.41
2024-04-19T04:17:33.838Z,6.28
2024-04-19T04:23:53.836Z,6.19
2024-04-19T04:30:15.822Z,6.26
2024-04-19T04:36:35.797Z,6.15
2024-04-19T04:42:57.953Z,6.25
2024-04-19T04:49:17.798Z,6.14
2024-04-19T04:55:39.911Z,6.12
2024-04-19T05:01:59.860Z,6.12
2024-04-19T05:08:21.904Z,6.03
2024-04-19T05:14:41.833Z,6.02
2024-04-19T05:21:03.811Z,6.05
2024-04-19T05:27:23.954Z,5.92
2024-04-19T05:33:45.996Z,5.76
2024-04-19T05:40:05.868Z,5.78
2024-04-19T05:46:27.849Z,5.67
2024-04-19T05:52:47.787Z,5.6
2024-04-19T05:59:09.920Z,5.71
2024-04-19T06:05:29.934Z,5.63
2024-04-19T06:11:51.908Z,5.57
2024-04-19T06:18:12.024Z,5.59
2024-04-19T06:24:33.867Z,5.53
2024-04-19T06:30:53.894Z,5.63
2024-04-19T06:37:15.951Z,5.71
2024-04-19T06:43:35.947Z,5.76
2024-04-19T06:49:57.951Z,5.86
2024-04-19T06:56:17.822Z,5.99
2024-04-19T07:02:39.886Z,5.99
2024-04-19T07:08:59.777Z,6.12
2024-04-19T07:15:21.875Z,6.12
2024-04-19T07:21:41.861Z,6.17
2024-04-19T07:28:03.909Z,6.17
2024-04-19T07:34:23.908Z,6.34
2024-04-19T07:40:45.882Z,6.37
2024-04-19T07:47:05.856Z,6.45
2024-04-19T07:53:27.854Z,6.66
2024-04-19T07:59:47.801Z,6.71
2024-04-19T08:06:09.806Z,6.77
2024-04-19T08:12:30.056Z,6.78
2024-04-19T08:18:51.866Z,6.96
2024-04-19T08:34:39.688Z,7.14
2024-04-19T08:40:58.805Z,7.15
2024-04-19T08:47:20.847Z,7.39
2024-04-19T08:53:40.867Z,7.49
2024-04-19T09:00:07.544Z,7.7
2024-04-19T09:06:22.966Z,7.8
2024-04-19T09:12:45.006Z,7.89
2024-04-19T09:19:04.809Z,8.11
2024-04-19T09:25:26.853Z,8.28
2024-04-19T09:31:46.875Z,8.45
2024-04-19T09:38:08.966Z,8.55
2024-04-19T09:44:28.818Z,8.93
2024-04-19T09:50:50.938Z,9.22
2024-04-19T09:57:10.864Z,9.36
2024-04-19T10:03:32.931Z,9.46
2024-04-19T10:09:52.961Z,9.54
2024-04-19T10:16:14.988Z,9.58
2024-04-19T10:22:35.057Z,9.66
2024-04-19T10:28:56.910Z,9.92
2024-04-19T10:35:16.802Z,10.22
2024-04-19T10:41:38.835Z,10.36
2024-04-19T10:47:58.892Z,10.35
2024-04-19T10:54:20.876Z,10.16
2024-04-19T11:00:42.951Z,10.05
2024-04-19T11:07:02.859Z,10.09
2024-04-19T11:13:22.880Z,10.09
2024-04-19T11:19:44.802Z,9.99
2024-04-19T11:26:04.855Z,9.91
2024-04-19T11:32:26.902Z,9.88
2024-04-19T11:38:47.037Z,9.81
2024-04-19T11:45:08.864Z,9.66
2024-04-19T11:51:28.888Z,9.59
2024-04-19T11:57:52.279Z,9.47
2024-04-19T12:04:10.861Z,8.65
2024-04-19T12:10:32.796Z,8.33
2024-04-19T12:16:56.807Z,7.62
2024-04-19T12:23:15.071Z,7.68
2024-04-19T12:29:34.949Z,7.91
2024-04-19T12:35:56.830Z,8.15
2024-04-19T12:42:16.917Z,8.39
2024-04-19T12:48:38.998Z,8.71
2024-04-19T12:54:58.845Z,8.76
2024-04-19T13:01:21.047Z,8.91
2024-04-19T13:07:40.857Z,9.13
2024-04-19T13:24:32.414Z,8.87
2024-04-19T13:30:52.772Z,9.06
2024-04-19T13:37:15.162Z,10.01
2024-04-19T13:43:33.845Z,9.93
2024-04-19T13:49:55.882Z,9.31
2024-04-19T13:56:15.819Z,8.97
2024-04-19T14:02:37.892Z,7.92
2024-04-19T14:08:58.059Z,7.57
2024-04-19T14:15:19.843Z,7.31
2024-04-19T14:21:39.963Z,7.37
2024-04-19T14:28:02.087Z,7.64
2024-04-19T14:34:21.874Z,8.4
2024-04-19T14:40:43.887Z,9.85
2024-04-19T14:47:03.898Z,9.16
2024-04-19T14:53:25.835Z,8.67
2024-04-19T14:59:45.901Z,8.41
2024-04-19T15:06:07.872Z,8.07
2024-04-19T15:12:28.000Z,8.08
2024-04-19T15:18:49.904Z,8.04
2024-04-19T15:25:10.143Z,7.87
2024-04-19T15:31:33.071Z,8.4
2024-04-19T15:37:51.853Z,9.03
2024-04-19T15:44:13.915Z,8.74
2024-04-19T15:50:33.819Z,8.78
2024-04-19T15:56:55.862Z,9.63
2024-04-19T16:03:15.969Z,10.21
2024-04-19T16:09:38.169Z,11.29
2024-04-19T16:15:57.963Z,10.79
2024-04-19T16:22:19.821Z,10.77
2024-04-19T16:28:39.835Z,10.02
2024-04-19T16:35:01.886Z,9.51
2024-04-19T16:41:21.958Z,9.51
2024-04-19T16:47:44.069Z,11.01
2024-04-19T16:54:03.833Z,11.47
2024-04-19T17:00:25.882Z,11.57
2024-04-19T17:06:48.441Z,10.54
2024-04-19T17:13:07.900Z,10.56
2024-04-19T17:19:27.812Z,11.01
2024-04-19T17:25:49.844Z,10.72
2024-04-19T17:32:09.850Z,9.67
2024-04-19T17:38:31.832Z,9.42
2024-04-19T18:01:35.406Z,8.82
2024-04-19T18:07:54.803Z,8.75
2024-04-19T18:14:16.815Z,8.56
2024-04-19T18:20:36.830Z,8.2
2024-04-19T18:26:58.819Z,8.08
2024-04-19T18:33:18.779Z,7.99
2024-04-19T18:39:39.943Z,7.89
2024-04-19T18:45:59.893Z,7.44
2024-04-19T18:52:21.905Z,7.07
2024-04-19T18:58:41.882Z,7.01
2024-04-19T19:05:03.827Z,6.82
2024-04-19T19:11:23.886Z,6.6
2024-04-19T19:17:45.855Z,6.39
2024-04-19T19:24:05.822Z,6.26
2024-04-19T19:30:27.905Z,6.31
2024-04-19T19:36:47.853Z,6.2
2024-04-19T19:43:11.653Z,6.21
2024-04-19T19:49:30.201Z,6.14
2024-04-19T19:55:51.914Z,6.17
2024-04-19T20:02:12.848Z,6.23
2024-04-19T20:08:34.995Z,6.34
2024-04-19T20:14:54.936Z,6.38
2024-04-19T20:21:16.853Z,6.42
2024-04-19T20:27:36.883Z,6.41
2024-04-19T20:33:58.979Z,6.34
2024-04-19T20:40:18.871Z,6.44
2024-04-19T20:46:40.866Z,6.43
2024-04-19T20:53:00.885Z,6.36
2024-04-19T20:59:22.904Z,6.45
2024-04-19T21:05:42.812Z,6.35
2024-04-19T21:12:04.790Z,6.36
2024-04-19T21:18:24.940Z,6.29
2024-04-19T21:24:46.828Z,6.27
2024-04-19T21:31:07.022Z,6.21
2024-04-19T21:37:28.829Z,6.14
2024-04-19T21:43:48.836Z,6.23
2024-04-19T21:50:10.834Z,6.31
2024-04-19T21:56:30.878Z,6.19
2024-04-19T22:20:46.821Z,6.29
2024-04-19T22:27:06.794Z,6.31
2024-04-19T22:33:28.854Z,6.34
2024-04-19T22:39:48.875Z,6.33
2024-04-19T22:46:10.850Z,6.36
2024-04-19T22:52:30.920Z,6.33
2024-04-19T22:58:52.804Z,6.42
2024-04-19T23:05:12.849Z,6.37
2024-04-19T23:11:34.824Z,6.32
2024-04-19T23:17:54.918Z,6.33
2024-04-19T23:24:16.842Z,6.3
2024-04-19T23:30:36.844Z,6.28
2024-04-19T23:36:58.920Z,6.26
2024-04-19T23:43:18.911Z,6.3
2024-04-19T23:49:40.821Z,6.19
2024-04-19T23:56:00.881Z,6.16
